Latest Weather Observations for Ivanhoe Airport

IDN60801

Issued at 11:53 pm EDT Wednesday 27 January 2021 (issued every 10 minutes, with the page automatically refreshed every 10 minutes)

About weather observations | Map of weather stations | Latest weather observations for NSW | Other Formats
Station Details ID: 049000 Name: IVANHOE AERODROME AWS Lat: -32.88 Lon: 144.31 Height: 100.0 m
Data from the previous 72 hours. | See also: Recent months at Ivanhoe Airport
Date/Time
EDT
Temp
°C
App
Temp
°C
Dew
Point
°C
Rel
Hum
%
Delta-T
°C
Wind Press
QNH
hPa
Press
MSL
hPa
Rain since
9am
mm
Dir  Spd
km/h
Gust
km/h
Spd
kts
Gust
kts
27/11:30pm 26.0 24.1 11.7 41 8.2 SSW 13 17 7 9 1008.9 1008.2 0.0
27/11:00pm 26.6 24.2 11.5 39 8.7 SSW 15 20 8 11 1009.0 1008.3 0.0
27/10:30pm 27.2 25.0 12.0 38 8.8 SSW 15 20 8 11 1009.0 1008.3 0.0
27/10:00pm 27.8 26.3 13.0 40 8.7 SSW 13 19 7 10 1008.5 1007.8 0.0
27/09:30pm 28.3 26.8 13.0 39 9.0 SSW 13 19 7 10 1008.4 1007.7 0.0
27/09:00pm 29.1 27.5 12.9 37 9.6 S 13 17 7 9 1008.0 1007.3 0.0
27/08:30pm 30.0 28.1 12.9 35 10.2 S 15 22 8 12 1008.0 1007.3 0.0
27/08:00pm 30.7 27.9 12.6 33 10.8 SSE 19 26 10 14 1007.6 1006.9 0.0
27/07:30pm 31.2 28.5 13.0 33 10.9 SSE 19 28 10 15 1007.5 1006.8 0.0
27/07:00pm 31.1 28.2 12.9 32 10.9 S 20 28 11 15 1007.4 1006.7 0.0
27/06:30pm 31.5 28.9 13.7 33 10.8 SSE 20 32 11 17 1007.2 1006.5 0.0
27/06:00pm 31.9 29.4 13.6 32 11.1 SSE 19 28 10 15 1007.5 1006.8 0.0
27/05:30pm 31.8 29.0 14.4 34 10.7 S 22 33 12 18 1007.7 1007.0 0.0
27/05:00pm 32.1 29.8 14.7 35 10.7 SSE 20 32 11 17 1007.9 1007.2 0.0
27/04:30pm 32.3 30.7 14.9 35 10.8 SSE 17 30 9 16 1008.2 1007.5 0.0
27/04:00pm 31.1 28.8 14.7 37 10.1 SE 20 30 11 16 1008.4 1007.7 0.0
27/03:30pm 30.5 27.9 13.7 35 10.1 SE 20 30 11 16 1008.6 1007.9 0.0
27/03:00pm 30.3 28.0 14.0 37 9.9 SE 19 26 10 14 1008.8 1008.1 0.0
27/02:30pm 29.7 27.3 13.9 38 9.5 SSE 19 32 10 17 1009.0 1008.3 0.0
27/02:00pm 28.7 25.2 13.4 39 9.1 SSE 24 35 13 19 1009.1 1008.5 0.0
27/01:30pm 28.0 25.2 13.1 39 8.8 SE 20 39 11 21 1009.5 1008.9 0.0
27/01:00pm 27.5 24.2 12.7 40 8.7 SSE 22 32 12 17 1009.9 1009.3 0.0
27/12:30pm 26.5 22.9 12.9 43 8.0 S 24 33 13 18 1010.0 1009.4 0.0
27/12:00pm 25.7 21.9 12.5 44 7.7 SSE 24 35 13 19 1010.2 1009.6 0.0
27/11:30am 24.8 21.5 12.7 47 7.0 S 22 32 12 17 1010.2 1009.6 0.0
27/11:00am 23.8 20.0 12.4 48 6.5 SSE 24 35 13 19 1010.1 1009.5 0.0
27/10:30am 22.7 19.1 13.2 55 5.5 SSE 24 35 13 19 1010.0 1009.4 0.0
27/10:00am 21.3 18.2 13.5 61 4.5 SSE 22 32 12 17 1010.0 1009.4 0.0
27/09:30am 20.2 17.0 13.2 64 4.0 SSE 22 33 12 18 1010.1 1009.5 0.0
27/09:00am 19.2 15.9 12.7 66 3.7 SSE 22 30 12 16 1010.0 1009.4 1.8
27/08:30am 18.4 14.7 12.6 69 3.3 SSE 24 33 13 18 1009.6 1009.0 1.8
27/08:00am 17.6 14.1 12.1 70 3.0 SSE 22 33 12 18 1009.4 1008.8 1.8
27/07:30am 17.3 14.4 12.4 73 2.7 SSE 19 24 10 13 1009.2 1008.6 1.8
27/07:00am 17.0 14.2 12.7 76 2.4 SSE 19 28 10 15 1008.9 1008.2 1.8
27/06:30am 17.2 15.5 13.5 79 2.1 SSE 15 20 8 11 1008.3 1007.6 1.8
27/06:00am 17.6 15.9 13.7 78 2.2 SSE 15 20 8 11 1007.7 1007.0 1.8
27/05:30am 18.0 16.0 13.9 77 2.3 SSE 17 24 9 13 1007.2 1006.5 1.8
27/05:00am 18.5 16.2 14.0 75 2.6 SSE 19 28 10 15 1006.7 1006.0 1.8
27/04:30am 19.4 17.2 14.9 75 2.6 S 20 28 11 15 1006.3 1005.6 1.8
27/04:00am 20.1 17.4 15.5 75 2.7 SSE 24 32 13 17 1005.9 1005.3 1.8
27/03:30am 20.5 19.2 16.9 80 2.2 S 19 24 10 13 1005.9 1005.3 1.8
27/03:00am 21.1 20.4 17.3 79 2.3 S 17 26 9 14 1005.6 1005.0 1.8
27/02:30am 21.3 21.6 17.9 81 2.1 SSW 13 19 7 10 1005.6 1005.0 1.8
27/02:00am 21.4 22.9 18.8 85 1.6 SSW 9 11 5 6 1005.5 1004.9 1.8
27/01:30am 21.9 22.9 18.7 82 2.0 SSW 11 13 6 7 1005.8 1005.2 1.8
27/01:00am 22.5 23.4 19.3 82 2.0 SSW 13 15 7 8 1005.8 1005.2 1.8
27/12:30am 22.5 25.9 22.0 97 0.3 WSW 7 11 4 6 1005.7 1005.1 1.8
27/12:00am 22.7 27.0 21.9 95 0.5 WSW 2 7 1 4 1005.8 1005.2 1.8
 
Date/Time
EDT
Temp
°C
App
Temp
°C
Dew
Point
°C
Rel
Hum
%
Delta-T
°C
Wind Press
QNH
hPa
Press
MSL
hPa
Rain since
9am
mm
Dir  Spd
km/h
Gust
km/h
Spd
kts
Gust
kts
26/11:30pm 22.9 27.6 21.9 94 0.7 CALM 0 0 0 0 1005.7 1005.1 1.8
26/11:00pm 23.2 27.9 22.0 93 0.8 CALM 0 0 0 0 1005.6 1005.0 1.8
26/10:30pm 23.5 27.8 21.9 91 1.1 W 2 6 1 3 1005.4 1004.8 1.8
26/10:00pm 23.8 28.6 22.1 90 1.1 CALM 0 2 0 1 1005.1 1004.5 1.8
26/09:30pm 24.5 29.1 21.8 85 1.8 CALM 0 0 0 0 1004.7 1004.1 1.8
26/09:00pm 25.3 29.0 20.8 76 3.0 SE 2 6 1 3 1004.4 1003.8 1.8
26/08:30pm 25.8 28.0 20.4 72 3.5 SSE 9 11 5 6 1004.2 1003.6 1.8
26/08:00pm 26.0 28.1 20.1 70 3.9 SSE 9 13 5 7 1004.0 1003.4 1.8
26/07:30pm 26.0 27.4 20.3 71 3.7 S 13 20 7 11 1003.7 1003.1 1.8
26/07:00pm 26.0 27.7 21.0 74 3.3 S 13 20 7 11 1003.2 1002.6 1.8
26/06:30pm 25.6 26.7 21.3 77 2.9 SSW 17 22 9 12 1002.6 1002.0 1.8
26/06:00pm 25.7 25.3 20.9 75 3.2 SSW 24 39 13 21 1002.2 1001.6 1.8
26/05:30pm 26.0 24.0 20.8 73 3.4 SSW 32 44 17 24 1002.3 1001.7 1.8
26/05:00pm 25.7 24.9 21.6 78 2.7 SSW 28 41 15 22 1002.0 1001.4 1.8
26/04:30pm 24.3 23.9 23.1 93 0.8 SSW 30 41 16 22 1002.2 1001.6 1.8
26/04:00pm 24.1 24.3 22.7 92 0.9 SSW 26 35 14 19 1002.4 1001.8 1.8
26/03:30pm 25.1 25.5 23.2 89 1.3 SW 26 35 14 19 1002.3 1001.7 1.6
26/03:00pm 25.5 25.3 22.0 81 2.4 SW 26 39 14 21 1002.3 1001.7 1.4
26/02:30pm 26.2 28.0 22.5 80 2.5 W 17 24 9 13 1002.2 1001.6 1.4
26/02:00pm 27.7 30.8 22.2 72 3.7 WNW 9 19 5 10 1002.0 1001.4 1.4
26/01:30pm 27.3 31.0 22.5 75 3.3 NNW 7 11 4 6 1001.7 1001.1 1.4
26/01:00pm 26.1 28.7 22.6 81 2.4 WNW 13 17 7 9 1002.2 1001.6 1.4
26/12:30pm 26.8 29.7 22.4 77 3.0 WNW 11 17 6 9 1002.5 1001.9 1.4
26/12:00pm 26.4 30.2 23.5 84 2.0 NNW 9 11 5 6 1002.7 1002.1 1.4
26/11:30am 24.9 28.9 23.7 93 0.8 N 9 13 5 7 1002.7 1002.1 1.4
26/11:00am 24.5 28.3 22.8 90 1.2 NW 7 11 4 6 1002.7 1002.1 1.4
26/10:30am 24.0 29.2 23.5 97 0.3 SE 2 7 1 4 1002.5 1001.9 1.4
26/10:00am 23.6 27.4 23.4 99 0.1 NNE 9 11 5 6 1002.8 1002.2 0.8
26/09:30am 23.4 28.3 22.4 94 0.7 CALM 0 0 0 0 1003.0 1002.4 0.6
26/09:00am 23.2 28.2 22.5 96 0.5 CALM 0 6 0 3 1003.0 1002.4 6.0
26/08:30am 23.1 27.9 22.9 99 0.1 NNE 2 6 1 3 1002.9 1002.3 5.6
26/08:00am 23.1 27.0 22.9 99 0.1 NNW 7 9 4 5 1002.7 1002.1 4.4
26/07:30am 23.4 27.9 22.9 97 0.3 SSW 4 9 2 5 1001.7 1001.1 2.0
26/07:00am 23.3 26.9 23.0 98 0.2 SSW 9 13 5 7 1001.3 1000.7 1.8
26/06:30am 23.2 26.6 22.7 97 0.3 SSW 9 17 5 9 1001.4 1000.8 1.8
26/06:00am 23.4 26.4 22.7 96 0.5 SSW 11 13 6 7 1001.0 1000.4 1.6
26/05:30am 23.2 26.3 22.9 98 0.2 SSW 11 17 6 9 1000.4 999.8 1.6
26/05:00am 23.1 25.5 22.9 99 0.1 SSW 15 22 8 12 1000.2 999.6 1.6
26/04:30am 22.8 24.1 22.6 99 0.1 SW 20 28 11 15 1000.5 999.9 1.6
26/04:00am 22.7 22.7 22.4 98 0.2 SW 26 39 14 21 1001.0 1000.4 1.2
26/03:30am 23.1 23.5 21.7 92 0.9 WSW 22 35 12 19 1000.8 1000.2 0.6
26/03:05am 23.2 22.4 21.6 91 1.1 WSW 28 46 15 25 1000.9 1000.3 0.4
26/03:00am 23.3 21.7 21.6 90 1.1 WSW 32 44 17 24 1001.0 1000.4 0.2
26/02:38am 24.0 22.6 20.5 81 2.3 W 28 46 15 25 1000.8 1000.2 0.0
26/02:30am 24.1 21.7 20.0 78 2.7 W 32 46 17 25 1000.9 1000.3 0.0
26/02:05am 28.3 23.4 17.2 51 7.0 WNW 39 57 21 31 1001.3 1000.7 0.0
26/02:00am 28.8 23.0 17.0 49 7.5 WNW 43 59 23 32 1001.4 1000.8 0.0
26/01:55am 29.4 24.0 16.9 47 7.9 WNW 41 59 22 32 1001.5 1000.9 0.0
26/01:30am 31.9 27.4 15.4 37 10.3 NW 33 54 18 29 1000.9 1000.3 0.0
26/01:05am 33.1 29.4 15.1 33 11.2 WNW 28 50 15 27 1000.4 999.8 0.0
26/01:00am 33.3 30.2 14.4 32 11.7 WNW 24 35 13 19 1000.4 999.8 0.0
26/12:30am 34.1 30.6 15.5 32 11.7 WNW 28 41 15 22 1000.1 999.4 0.0
26/12:23am 34.2 30.7 15.6 32 11.7 WNW 28 43 15 23 1000.1 999.4 0.0
26/12:00am 34.1 32.3 15.5 32 11.7 WNW 19 24 10 13 999.9 999.2 0.0
 
Date/Time
EDT
Temp
°C
App
Temp
°C
Dew
Point
°C
Rel
Hum
%
Delta-T
°C
Wind Press
QNH
hPa
Press
MSL
hPa
Rain since
9am
mm
Dir  Spd
km/h
Gust
km/h
Spd
kts
Gust
kts
25/11:30pm 34.1 32.0 14.6 31 12.1 WNW 19 30 10 16 999.8 999.1 0.0
25/11:00pm 35.0 32.0 12.6 26 13.6 WNW 20 32 11 17 999.6 998.9 0.0
25/10:30pm 36.1 33.0 7.2 17 16.2 NW 13 17 7 9 999.3 998.6 0.0
25/10:00pm 36.4 33.3 5.6 15 16.9 NNW 11 17 6 9 998.9 998.2 0.0
25/09:30pm 36.8 33.2 4.9 14 17.3 NW 13 17 7 9 998.7 998.0 0.0
25/09:00pm 37.2 32.7 4.2 13 17.8 N 17 22 9 12 998.2 997.5 0.0
25/08:30pm 37.7 32.9 4.6 13 17.9 N 19 24 10 13 998.1 997.4 0.0
25/08:00pm 38.1 32.9 3.8 12 18.5 N 20 28 11 15 998.0 997.3 0.0
25/07:30pm 38.6 32.4 4.1 12 18.6 N 26 39 14 21 997.9 997.2 0.0
25/07:00pm 39.2 34.2 4.6 12 19.0 N 20 30 11 16 997.8 997.1 0.0
25/06:30pm 39.6 34.4 3.7 11 19.4 N 20 33 11 18 998.0 997.3 0.0
25/06:00pm 39.3 33.3 3.4 11 19.4 N 24 35 13 19 998.3 997.6 0.0
25/05:30pm 39.8 34.8 3.8 11 19.5 NNE 19 35 10 19 998.6 997.9 0.0
25/05:00pm 38.7 32.3 3.0 11 19.1 NNW 26 37 14 20 999.3 998.6 0.0
25/04:38pm 39.2 32.2 2.0 10 19.5 N 28 46 15 25 999.6 998.9 0.0
25/04:30pm 39.9 33.4 2.5 10 19.8 NNE 26 44 14 24 999.7 999.0 0.0
25/04:00pm 39.2 33.7 0.6 9 19.9 N 19 28 10 15 1000.3 999.7 0.0
25/03:30pm 39.0 33.1 1.9 10 19.4 NNE 22 35 12 19 1000.8 1000.2 0.0
25/03:00pm 39.7 33.9 2.4 10 19.8 N 22 39 12 21 1001.3 1000.7 0.0
25/02:30pm 38.8 32.9 1.7 10 19.3 N 22 32 12 17 1002.0 1001.4 0.0
25/02:00pm 38.7 32.3 3.0 11 19.0 N 26 43 14 23 1002.5 1001.9 0.0
25/01:30pm 38.9 33.5 4.4 12 18.7 NNW 22 35 12 19 1003.1 1002.5 0.0
25/01:00pm 38.1 32.2 6.0 14 17.9 N 26 41 14 22 1003.7 1003.1 0.0
25/12:30pm 39.6 34.6 8.1 15 18.1 N 24 39 13 21 1004.1 1003.5 0.0
25/12:00pm 37.7 32.4 6.6 15 17.4 N 24 41 13 22 1004.6 1004.0 0.0
25/11:30am 36.8 30.8 6.9 16 16.7 N 28 39 15 21 1005.1 1004.5 0.0
25/11:00am 36.2 30.8 6.4 16 16.5 NNW 24 35 13 19 1005.3 1004.7 0.0
25/10:30am 34.2 28.1 6.5 18 15.2 N 28 35 15 19 1005.8 1005.2 0.0
25/10:00am 34.1 28.3 8.0 20 14.7 N 28 37 15 20 1006.1 1005.4 0.0
25/09:30am 33.2 28.2 7.9 21 14.1 N 24 35 13 19 1006.3 1005.6 0.0
25/09:00am 31.1 26.3 7.5 23 13.0 N 22 35 12 19 1006.3 1005.6 0.0
25/08:30am 30.8 26.5 7.9 24 12.6 N 20 32 11 17 1006.3 1005.6 0.0
25/08:00am 30.6 26.3 7.7 24 12.6 N 20 28 11 15 1006.2 1005.5 0.0
25/07:30am 30.4 26.8 8.2 25 12.3 N 17 26 9 14 1005.9 1005.3 0.0
25/07:00am 30.8 26.7 7.9 24 12.6 N 19 26 10 14 1005.5 1004.9 0.0
25/06:30am 30.7 27.1 8.4 25 12.4 N 17 26 9 14 1005.2 1004.6 0.0
25/06:00am 30.8 26.7 8.5 25 12.4 N 20 28 11 15 1004.8 1004.2 0.0
25/05:30am 29.1 26.0 8.7 28 11.3 N 15 20 8 11 1004.6 1004.0 0.0
25/05:00am 28.4 25.6 8.7 29 10.9 NNE 13 17 7 9 1004.4 1003.8 0.0
25/04:30am 29.0 26.2 8.7 28 11.2 NNE 13 17 7 9 1004.3 1003.7 0.0
25/04:00am 29.1 26.6 8.2 27 11.5 N 11 13 6 7 1004.3 1003.7 0.0
25/03:30am 29.4 26.6 8.5 27 11.5 NNE 13 15 7 8 1004.3 1003.7 0.0
25/03:00am 29.6 26.8 8.6 27 11.7 NNE 13 17 7 9 1004.4 1003.8 0.0
25/02:30am 28.9 26.0 8.0 27 11.4 NNE 13 15 7 8 1004.6 1004.0 0.0
25/02:00am 29.1 26.6 8.2 27 11.5 NNE 11 13 6 7 1004.6 1004.0 0.0
25/01:30am 29.1 26.5 7.7 26 11.6 N 11 13 6 7 1004.8 1004.2 0.0
25/01:00am 29.4 26.3 7.3 25 12.0 N 13 13 7 7 1005.0 1004.4 0.0
25/12:30am 30.1 27.4 7.3 24 12.4 N 11 13 6 7 1005.2 1004.6 0.0
25/12:00am 31.2 28.4 7.0 22 13.2 N 11 15 6 8 1005.4 1004.8 0.0

Other formats

Comma delimited format used in spreadsheet applications
http://www.bom.gov.au/fwo/IDN60801/IDN60801.95697.axf

JavaScript Object Notation format (JSON) in row-major order
http://www.bom.gov.au/fwo/IDN60801/IDN60801.95697.json

Data quality

Most of these data are generated automatically and are frequently updated. Quality checks on data are not normally performed. It is possible for incorrect values to appear. Refer to information at About Latest Weather Observations and please check the disclaimer before using these data.